sensor_id;sensor_type;location;lat;lon;timestamp;temperature;humidity
22364;DHT22;11349;53.412;-1.328;2023-10-31T00:01:51;8.80;99.90
22364;DHT22;11349;53.412;-1.328;2023-10-31T00:04:17;8.80;99.90
22364;DHT22;11349;53.412;-1.328;2023-10-31T00:06:43;8.80;99.90
22364;DHT22;11349;53.412;-1.328;2023-10-31T00:09:09;8.70;99.90
22364;DHT22;11349;53.412;-1.328;2023-10-31T00:11:36;8.70;99.90
22364;DHT22;11349;53.412;-1.328;2023-10-31T00:14:03;8.70;99.90
22364;DHT22;11349;53.412;-1.328;2023-10-31T00:16:28;8.80;99.90
22364;DHT22;11349;53.412;-1.328;2023-10-31T00:18:54;8.70;99.90
22364;DHT22;11349;53.412;-1.328;2023-10-31T00:21:20;8.80;99.90
22364;DHT22;11349;53.412;-1.328;2023-10-31T00:23:47;8.70;99.90
22364;DHT22;11349;53.412;-1.328;2023-10-31T00:26:13;8.70;99.90
22364;DHT22;11349;53.412;-1.328;2023-10-31T00:28:39;8.70;99.90
22364;DHT22;11349;53.412;-1.328;2023-10-31T00:31:04;8.70;99.90
22364;DHT22;11349;53.412;-1.328;2023-10-31T00:33:57;8.70;99.90
22364;DHT22;11349;53.412;-1.328;2023-10-31T00:36:23;8.70;99.90
22364;DHT22;11349;53.412;-1.328;2023-10-31T00:38:48;8.70;99.90
22364;DHT22;11349;53.412;-1.328;2023-10-31T00:41:14;8.70;99.90
22364;DHT22;11349;53.412;-1.328;2023-10-31T00:43:40;8.70;99.90
22364;DHT22;11349;53.412;-1.328;2023-10-31T00:46:05;8.70;99.90
22364;DHT22;11349;53.412;-1.328;2023-10-31T00:48:31;8.60;99.90
22364;DHT22;11349;53.412;-1.328;2023-10-31T00:51:03;8.60;99.90
22364;DHT22;11349;53.412;-1.328;2023-10-31T00:53:29;8.60;99.90
22364;DHT22;11349;53.412;-1.328;2023-10-31T00:55:55;8.60;99.90
22364;DHT22;11349;53.412;-1.328;2023-10-31T00:58:20;8.60;99.90
22364;DHT22;11349;53.412;-1.328;2023-10-31T01:00:46;8.60;99.90
22364;DHT22;11349;53.412;-1.328;2023-10-31T01:03:12;8.70;99.90
22364;DHT22;11349;53.412;-1.328;2023-10-31T01:05:38;8.70;99.90
22364;DHT22;11349;53.412;-1.328;2023-10-31T01:08:03;8.70;99.90
22364;DHT22;11349;53.412;-1.328;2023-10-31T01:10:29;8.70;99.90
22364;DHT22;11349;53.412;-1.328;2023-10-31T01:12:55;8.60;99.90
22364;DHT22;11349;53.412;-1.328;2023-10-31T01:15:20;8.60;99.90
22364;DHT22;11349;53.412;-1.328;2023-10-31T01:17:46;8.60;99.90
22364;DHT22;11349;53.412;-1.328;2023-10-31T01:20:12;8.70;99.90
22364;DHT22;11349;53.412;-1.328;2023-10-31T01:22:38;8.60;99.90
22364;DHT22;11349;53.412;-1.328;2023-10-31T01:25:04;8.60;99.90
22364;DHT22;11349;53.412;-1.328;2023-10-31T01:27:30;8.60;99.90
22364;DHT22;11349;53.412;-1.328;2023-10-31T01:29:56;8.60;99.90
22364;DHT22;11349;53.412;-1.328;2023-10-31T01:32:21;8.60;99.90
22364;DHT22;11349;53.412;-1.328;2023-10-31T01:34:47;8.60;99.90
22364;DHT22;11349;53.412;-1.328;2023-10-31T01:37:13;8.60;99.90
22364;DHT22;11349;53.412;-1.328;2023-10-31T01:39:40;8.70;99.90
22364;DHT22;11349;53.412;-1.328;2023-10-31T01:42:06;8.60;99.90
22364;DHT22;11349;53.412;-1.328;2023-10-31T01:44:31;8.60;99.90
22364;DHT22;11349;53.412;-1.328;2023-10-31T01:46:57;8.60;99.90
22364;DHT22;11349;53.412;-1.328;2023-10-31T01:49:23;8.60;99.90
22364;DHT22;11349;53.412;-1.328;2023-10-31T01:51:49;8.60;99.90
22364;DHT22;11349;53.412;-1.328;2023-10-31T01:54:15;8.60;99.90
22364;DHT22;11349;53.412;-1.328;2023-10-31T01:56:42;8.60;99.90
22364;DHT22;11349;53.412;-1.328;2023-10-31T01:59:10;8.70;99.90
22364;DHT22;11349;53.412;-1.328;2023-10-31T02:01:38;8.70;99.90
22364;DHT22;11349;53.412;-1.328;2023-10-31T02:04:05;8.70;99.90
22364;DHT22;11349;53.412;-1.328;2023-10-31T02:06:34;8.70;99.90
22364;DHT22;11349;53.412;-1.328;2023-10-31T02:09:04;8.60;99.90
22364;DHT22;11349;53.412;-1.328;2023-10-31T02:11:33;8.70;99.90
22364;DHT22;11349;53.412;-1.328;2023-10-31T02:13:58;8.60;99.90
22364;DHT22;11349;53.412;-1.328;2023-10-31T02:16:24;8.60;99.90
22364;DHT22;11349;53.412;-1.328;2023-10-31T02:18:53;8.60;99.90
22364;DHT22;11349;53.412;-1.328;2023-10-31T02:21:22;8.60;99.90
22364;DHT22;11349;53.412;-1.328;2023-10-31T02:24:00;8.60;99.90
22364;DHT22;11349;53.412;-1.328;2023-10-31T02:26:31;8.70;99.90
22364;DHT22;11349;53.412;-1.328;2023-10-31T02:28:57;8.60;99.90
22364;DHT22;11349;53.412;-1.328;2023-10-31T02:31:22;8.50;99.90
22364;DHT22;11349;53.412;-1.328;2023-10-31T02:33:48;8.50;99.90
22364;DHT22;11349;53.412;-1.328;2023-10-31T02:36:14;8.50;99.90
22364;DHT22;11349;53.412;-1.328;2023-10-31T02:38:40;8.60;99.90
22364;DHT22;11349;53.412;-1.328;2023-10-31T02:41:06;8.60;99.90
22364;DHT22;11349;53.412;-1.328;2023-10-31T02:43:31;8.50;99.90
22364;DHT22;11349;53.412;-1.328;2023-10-31T02:45:57;8.60;99.90
22364;DHT22;11349;53.412;-1.328;2023-10-31T02:48:24;8.60;99.90
22364;DHT22;11349;53.412;-1.328;2023-10-31T02:50:52;8.50;99.90
22364;DHT22;11349;53.412;-1.328;2023-10-31T02:53:18;8.50;99.90
22364;DHT22;11349;53.412;-1.328;2023-10-31T02:55:44;8.60;99.90
22364;DHT22;11349;53.412;-1.328;2023-10-31T02:58:10;8.50;99.90
22364;DHT22;11349;53.412;-1.328;2023-10-31T03:00:36;8.50;99.90
22364;DHT22;11349;53.412;-1.328;2023-10-31T03:03:02;8.50;99.90
22364;DHT22;11349;53.412;-1.328;2023-10-31T03:05:28;8.50;99.90
22364;DHT22;11349;53.412;-1.328;2023-10-31T03:07:54;8.50;99.90
22364;DHT22;11349;53.412;-1.328;2023-10-31T03:10:20;8.50;99.90
22364;DHT22;11349;53.412;-1.328;2023-10-31T03:12:46;8.50;99.90
22364;DHT22;11349;53.412;-1.328;2023-10-31T03:15:12;8.60;99.90
22364;DHT22;11349;53.412;-1.328;2023-10-31T03:17:38;8.50;99.90
22364;DHT22;11349;53.412;-1.328;2023-10-31T03:20:04;8.50;99.90
22364;DHT22;11349;53.412;-1.328;2023-10-31T03:22:30;8.60;99.90
22364;DHT22;11349;53.412;-1.328;2023-10-31T03:24:55;8.60;99.90
22364;DHT22;11349;53.412;-1.328;2023-10-31T03:27:21;8.50;99.90
22364;DHT22;11349;53.412;-1.328;2023-10-31T03:29:47;8.50;99.90
22364;DHT22;11349;53.412;-1.328;2023-10-31T03:32:13;8.50;99.90
22364;DHT22;11349;53.412;-1.328;2023-10-31T03:34:39;8.50;99.90
22364;DHT22;11349;53.412;-1.328;2023-10-31T03:37:05;8.50;99.90
22364;DHT22;11349;53.412;-1.328;2023-10-31T03:39:31;8.50;99.90
22364;DHT22;11349;53.412;-1.328;2023-10-31T03:41:56;8.50;99.90
22364;DHT22;11349;53.412;-1.328;2023-10-31T03:44:22;8.50;99.90
22364;DHT22;11349;53.412;-1.328;2023-10-31T03:46:48;8.50;99.90
22364;DHT22;11349;53.412;-1.328;2023-10-31T03:49:13;8.60;99.90
22364;DHT22;11349;53.412;-1.328;2023-10-31T03:51:39;8.50;99.90
22364;DHT22;11349;53.412;-1.328;2023-10-31T03:54:05;8.60;99.90
22364;DHT22;11349;53.412;-1.328;2023-10-31T03:56:30;8.60;99.90
22364;DHT22;11349;53.412;-1.328;2023-10-31T03:59:03;8.50;99.90
22364;DHT22;11349;53.412;-1.328;2023-10-31T04:01:29;8.50;99.90
22364;DHT22;11349;53.412;-1.328;2023-10-31T04:03:54;8.50;99.90
22364;DHT22;11349;53.412;-1.328;2023-10-31T04:06:20;8.50;99.90
22364;DHT22;11349;53.412;-1.328;2023-10-31T04:08:46;8.50;99.90
22364;DHT22;11349;53.412;-1.328;2023-10-31T04:11:11;8.50;99.90
22364;DHT22;11349;53.412;-1.328;2023-10-31T04:13:37;8.50;99.90
22364;DHT22;11349;53.412;-1.328;2023-10-31T04:16:03;8.50;99.90
22364;DHT22;11349;53.412;-1.328;2023-10-31T04:18:29;8.50;99.90
22364;DHT22;11349;53.412;-1.328;2023-10-31T04:20:55;8.50;99.90
22364;DHT22;11349;53.412;-1.328;2023-10-31T04:23:20;8.50;99.90
22364;DHT22;11349;53.412;-1.328;2023-10-31T04:25:46;8.50;99.90
22364;DHT22;11349;53.412;-1.328;2023-10-31T04:28:12;8.50;99.90
22364;DHT22;11349;53.412;-1.328;2023-10-31T04:30:40;8.50;99.90
22364;DHT22;11349;53.412;-1.328;2023-10-31T04:33:06;8.50;99.90
22364;DHT22;11349;53.412;-1.328;2023-10-31T04:35:31;8.50;99.90
22364;DHT22;11349;53.412;-1.328;2023-10-31T04:37:57;8.50;99.90
22364;DHT22;11349;53.412;-1.328;2023-10-31T04:40:23;8.50;99.90
22364;DHT22;11349;53.412;-1.328;2023-10-31T04:42:48;8.50;99.90
22364;DHT22;11349;53.412;-1.328;2023-10-31T04:45:14;8.50;99.90
22364;DHT22;11349;53.412;-1.328;2023-10-31T04:47:41;8.40;99.90
22364;DHT22;11349;53.412;-1.328;2023-10-31T04:50:07;8.40;99.90
22364;DHT22;11349;53.412;-1.328;2023-10-31T04:52:33;8.40;99.90
22364;DHT22;11349;53.412;-1.328;2023-10-31T04:54:58;8.50;99.90
22364;DHT22;11349;53.412;-1.328;2023-10-31T04:57:24;8.40;99.90
22364;DHT22;11349;53.412;-1.328;2023-10-31T04:59:50;8.40;99.90
22364;DHT22;11349;53.412;-1.328;2023-10-31T05:02:16;8.50;99.90
22364;DHT22;11349;53.412;-1.328;2023-10-31T05:04:41;8.40;99.90
22364;DHT22;11349;53.412;-1.328;2023-10-31T05:07:07;8.40;99.90
22364;DHT22;11349;53.412;-1.328;2023-10-31T05:09:33;8.50;99.90
22364;DHT22;11349;53.412;-1.328;2023-10-31T05:11:59;8.40;99.90
22364;DHT22;11349;53.412;-1.328;2023-10-31T05:14:25;8.50;99.90
22364;DHT22;11349;53.412;-1.328;2023-10-31T05:16:51;8.50;99.90
22364;DHT22;11349;53.412;-1.328;2023-10-31T05:19:17;8.40;99.90
22364;DHT22;11349;53.412;-1.328;2023-10-31T05:21:42;8.50;99.90
22364;DHT22;11349;53.412;-1.328;2023-10-31T05:24:08;8.50;99.90
22364;DHT22;11349;53.412;-1.328;2023-10-31T05:26:34;8.50;99.90
22364;DHT22;11349;53.412;-1.328;2023-10-31T05:29:00;8.50;99.90
22364;DHT22;11349;53.412;-1.328;2023-10-31T05:31:26;8.50;99.90
22364;DHT22;11349;53.412;-1.328;2023-10-31T05:33:52;8.50;99.90
22364;DHT22;11349;53.412;-1.328;2023-10-31T05:36:22;8.50;99.90
22364;DHT22;11349;53.412;-1.328;2023-10-31T05:38:48;8.50;99.90
22364;DHT22;11349;53.412;-1.328;2023-10-31T05:41:14;8.50;99.90
22364;DHT22;11349;53.412;-1.328;2023-10-31T05:43:41;8.50;99.90
22364;DHT22;11349;53.412;-1.328;2023-10-31T05:46:07;8.60;99.90
22364;DHT22;11349;53.412;-1.328;2023-10-31T05:48:38;8.50;99.90
22364;DHT22;11349;53.412;-1.328;2023-10-31T05:51:04;8.50;99.90
22364;DHT22;11349;53.412;-1.328;2023-10-31T05:53:30;8.50;99.90
22364;DHT22;11349;53.412;-1.328;2023-10-31T05:55:59;8.50;99.90
22364;DHT22;11349;53.412;-1.328;2023-10-31T05:58:25;8.50;99.90
22364;DHT22;11349;53.412;-1.328;2023-10-31T06:00:50;8.60;99.90
22364;DHT22;11349;53.412;-1.328;2023-10-31T06:03:16;8.60;99.90
22364;DHT22;11349;53.412;-1.328;2023-10-31T06:05:42;8.60;99.90
22364;DHT22;11349;53.412;-1.328;2023-10-31T06:08:09;8.60;99.90
22364;DHT22;11349;53.412;-1.328;2023-10-31T06:10:34;8.60;99.90
22364;DHT22;11349;53.412;-1.328;2023-10-31T06:13:00;8.60;99.90
22364;DHT22;11349;53.412;-1.328;2023-10-31T06:15:26;8.60;99.90
22364;DHT22;11349;53.412;-1.328;2023-10-31T06:17:52;8.50;99.90
22364;DHT22;11349;53.412;-1.328;2023-10-31T06:20:17;8.50;99.90
22364;DHT22;11349;53.412;-1.328;2023-10-31T06:22:43;8.50;99.90
22364;DHT22;11349;53.412;-1.328;2023-10-31T06:25:09;8.40;99.90
22364;DHT22;11349;53.412;-1.328;2023-10-31T06:27:35;8.50;99.90
22364;DHT22;11349;53.412;-1.328;2023-10-31T06:30:00;8.40;99.90
22364;DHT22;11349;53.412;-1.328;2023-10-31T06:32:26;8.40;99.90
22364;DHT22;11349;53.412;-1.328;2023-10-31T06:34:52;8.40;99.90
22364;DHT22;11349;53.412;-1.328;2023-10-31T06:37:18;8.40;99.90
22364;DHT22;11349;53.412;-1.328;2023-10-31T06:39:44;8.40;99.90
22364;DHT22;11349;53.412;-1.328;2023-10-31T06:42:09;8.40;99.90
22364;DHT22;11349;53.412;-1.328;2023-10-31T06:44:35;8.40;99.90
22364;DHT22;11349;53.412;-1.328;2023-10-31T06:47:01;8.40;99.90
22364;DHT22;11349;53.412;-1.328;2023-10-31T06:49:26;8.40;99.90
22364;DHT22;11349;53.412;-1.328;2023-10-31T06:51:52;8.40;99.90
22364;DHT22;11349;53.412;-1.328;2023-10-31T06:54:18;8.40;99.90
22364;DHT22;11349;53.412;-1.328;2023-10-31T06:56:44;8.30;99.90
22364;DHT22;11349;53.412;-1.328;2023-10-31T06:59:09;8.30;99.90
22364;DHT22;11349;53.412;-1.328;2023-10-31T07:01:35;8.30;99.90
22364;DHT22;11349;53.412;-1.328;2023-10-31T07:04:01;8.30;99.90
22364;DHT22;11349;53.412;-1.328;2023-10-31T07:06:27;8.40;99.90
22364;DHT22;11349;53.412;-1.328;2023-10-31T07:08:52;8.30;99.90
22364;DHT22;11349;53.412;-1.328;2023-10-31T07:11:18;8.30;99.90
22364;DHT22;11349;53.412;-1.328;2023-10-31T07:13:44;8.40;99.90
22364;DHT22;11349;53.412;-1.328;2023-10-31T07:16:10;8.40;99.90
22364;DHT22;11349;53.412;-1.328;2023-10-31T07:18:35;8.40;99.90
22364;DHT22;11349;53.412;-1.328;2023-10-31T07:21:01;8.40;99.90
22364;DHT22;11349;53.412;-1.328;2023-10-31T07:23:27;8.40;99.90
22364;DHT22;11349;53.412;-1.328;2023-10-31T07:25:52;8.40;99.90
22364;DHT22;11349;53.412;-1.328;2023-10-31T07:28:18;8.40;99.90
22364;DHT22;11349;53.412;-1.328;2023-10-31T07:30:44;8.40;99.90
22364;DHT22;11349;53.412;-1.328;2023-10-31T07:33:10;8.50;99.90
22364;DHT22;11349;53.412;-1.328;2023-10-31T07:35:35;8.50;99.90
22364;DHT22;11349;53.412;-1.328;2023-10-31T07:38:01;8.50;99.90
22364;DHT22;11349;53.412;-1.328;2023-10-31T07:40:27;8.50;99.90
22364;DHT22;11349;53.412;-1.328;2023-10-31T07:42:53;8.50;99.90
22364;DHT22;11349;53.412;-1.328;2023-10-31T07:45:21;8.60;99.90
22364;DHT22;11349;53.412;-1.328;2023-10-31T07:47:47;8.50;99.90
22364;DHT22;11349;53.412;-1.328;2023-10-31T07:50:13;8.50;99.90
22364;DHT22;11349;53.412;-1.328;2023-10-31T07:52:39;8.50;99.90
22364;DHT22;11349;53.412;-1.328;2023-10-31T07:55:05;8.60;99.90
22364;DHT22;11349;53.412;-1.328;2023-10-31T07:57:31;8.60;99.90
22364;DHT22;11349;53.412;-1.328;2023-10-31T07:59:56;8.50;99.90
22364;DHT22;11349;53.412;-1.328;2023-10-31T08:02:22;8.60;99.90
22364;DHT22;11349;53.412;-1.328;2023-10-31T08:04:48;8.60;99.90
22364;DHT22;11349;53.412;-1.328;2023-10-31T08:07:13;8.60;99.90
22364;DHT22;11349;53.412;-1.328;2023-10-31T08:09:39;8.70;99.90
22364;DHT22;11349;53.412;-1.328;2023-10-31T08:12:05;8.70;99.90
22364;DHT22;11349;53.412;-1.328;2023-10-31T08:14:31;8.70;99.90
22364;DHT22;11349;53.412;-1.328;2023-10-31T08:16:57;8.70;99.90
22364;DHT22;11349;53.412;-1.328;2023-10-31T08:19:22;8.70;99.90
22364;DHT22;11349;53.412;-1.328;2023-10-31T08:21:48;8.70;99.90
22364;DHT22;11349;53.412;-1.328;2023-10-31T08:24:15;8.70;99.90
22364;DHT22;11349;53.412;-1.328;2023-10-31T08:26:40;8.70;99.90
22364;DHT22;11349;53.412;-1.328;2023-10-31T08:29:06;8.70;99.90
22364;DHT22;11349;53.412;-1.328;2023-10-31T08:31:32;8.80;99.90
22364;DHT22;11349;53.412;-1.328;2023-10-31T08:33:57;8.80;99.90
22364;DHT22;11349;53.412;-1.328;2023-10-31T08:36:23;8.80;99.90
22364;DHT22;11349;53.412;-1.328;2023-10-31T08:38:49;8.90;99.90
22364;DHT22;11349;53.412;-1.328;2023-10-31T08:41:15;8.90;99.90
22364;DHT22;11349;53.412;-1.328;2023-10-31T08:43:46;8.90;99.90
22364;DHT22;11349;53.412;-1.328;2023-10-31T08:46:12;8.90;99.90
22364;DHT22;11349;53.412;-1.328;2023-10-31T08:48:37;9.00;99.90
22364;DHT22;11349;53.412;-1.328;2023-10-31T08:51:04;9.00;99.90
22364;DHT22;11349;53.412;-1.328;2023-10-31T08:53:29;9.00;99.90
22364;DHT22;11349;53.412;-1.328;2023-10-31T08:55:55;9.10;99.90
22364;DHT22;11349;53.412;-1.328;2023-10-31T08:58:22;9.10;99.90
22364;DHT22;11349;53.412;-1.328;2023-10-31T09:00:48;9.10;99.90
22364;DHT22;11349;53.412;-1.328;2023-10-31T09:03:13;9.10;99.90
22364;DHT22;11349;53.412;-1.328;2023-10-31T09:05:42;9.20;99.90
22364;DHT22;11349;53.412;-1.328;2023-10-31T09:08:09;9.20;99.90
22364;DHT22;11349;53.412;-1.328;2023-10-31T09:10:36;9.20;99.90
22364;DHT22;11349;53.412;-1.328;2023-10-31T09:13:05;9.20;99.90
22364;DHT22;11349;53.412;-1.328;2023-10-31T09:15:31;9.20;99.90
22364;DHT22;11349;53.412;-1.328;2023-10-31T09:17:56;9.20;99.90
22364;DHT22;11349;53.412;-1.328;2023-10-31T09:20:22;9.30;99.90
22364;DHT22;11349;53.412;-1.328;2023-10-31T09:22:48;9.30;99.90
22364;DHT22;11349;53.412;-1.328;2023-10-31T09:25:14;9.30;99.90
22364;DHT22;11349;53.412;-1.328;2023-10-31T09:27:40;9.30;99.90
22364;DHT22;11349;53.412;-1.328;2023-10-31T09:30:06;9.30;99.90
22364;DHT22;11349;53.412;-1.328;2023-10-31T09:32:32;9.40;99.90
22364;DHT22;11349;53.412;-1.328;2023-10-31T09:34:58;9.40;99.90
22364;DHT22;11349;53.412;-1.328;2023-10-31T09:37:24;9.40;99.90
22364;DHT22;11349;53.412;-1.328;2023-10-31T09:39:50;9.50;99.90
22364;DHT22;11349;53.412;-1.328;2023-10-31T09:42:15;9.50;99.90
22364;DHT22;11349;53.412;-1.328;2023-10-31T09:44:41;9.50;99.90
22364;DHT22;11349;53.412;-1.328;2023-10-31T09:47:07;9.60;99.90
22364;DHT22;11349;53.412;-1.328;2023-10-31T09:49:33;9.60;99.90
22364;DHT22;11349;53.412;-1.328;2023-10-31T09:51:59;9.60;99.90
22364;DHT22;11349;53.412;-1.328;2023-10-31T09:54:26;9.60;99.90
22364;DHT22;11349;53.412;-1.328;2023-10-31T09:56:52;9.60;99.90
22364;DHT22;11349;53.412;-1.328;2023-10-31T09:59:18;9.60;99.90
22364;DHT22;11349;53.412;-1.328;2023-10-31T10:01:44;9.60;99.90
22364;DHT22;11349;53.412;-1.328;2023-10-31T10:04:10;9.70;99.90
22364;DHT22;11349;53.412;-1.328;2023-10-31T10:06:49;9.80;99.90
22364;DHT22;11349;53.412;-1.328;2023-10-31T10:09:15;9.70;99.90
22364;DHT22;11349;53.412;-1.328;2023-10-31T10:11:40;9.70;99.90
22364;DHT22;11349;53.412;-1.328;2023-10-31T10:14:06;9.80;99.90
22364;DHT22;11349;53.412;-1.328;2023-10-31T10:16:34;9.80;99.90
22364;DHT22;11349;53.412;-1.328;2023-10-31T10:19:17;9.90;99.90
22364;DHT22;11349;53.412;-1.328;2023-10-31T10:21:56;9.80;99.90
22364;DHT22;11349;53.412;-1.328;2023-10-31T10:24:23;9.90;99.90
22364;DHT22;11349;53.412;-1.328;2023-10-31T10:26:50;10.00;99.90
22364;DHT22;11349;53.412;-1.328;2023-10-31T10:29:17;9.90;99.90
22364;DHT22;11349;53.412;-1.328;2023-10-31T10:31:43;9.90;99.90
22364;DHT22;11349;53.412;-1.328;2023-10-31T10:34:10;9.90;99.90
22364;DHT22;11349;53.412;-1.328;2023-10-31T10:36:38;9.90;99.90
22364;DHT22;11349;53.412;-1.328;2023-10-31T10:39:06;10.00;99.90
22364;DHT22;11349;53.412;-1.328;2023-10-31T10:41:34;10.00;99.90
22364;DHT22;11349;53.412;-1.328;2023-10-31T10:44:05;10.00;99.90
22364;DHT22;11349;53.412;-1.328;2023-10-31T10:46:36;10.10;99.90
22364;DHT22;11349;53.412;-1.328;2023-10-31T10:49:06;10.00;99.90
22364;DHT22;11349;53.412;-1.328;2023-10-31T10:51:57;10.10;99.90
22364;DHT22;11349;53.412;-1.328;2023-10-31T10:54:49;10.10;99.90
22364;DHT22;11349;53.412;-1.328;2023-10-31T10:57:38;10.10;99.90
22364;DHT22;11349;53.412;-1.328;2023-10-31T11:00:05;10.10;99.90
22364;DHT22;11349;53.412;-1.328;2023-10-31T11:02:36;10.10;99.90
22364;DHT22;11349;53.412;-1.328;2023-10-31T11:05:05;10.10;99.90
22364;DHT22;11349;53.412;-1.328;2023-10-31T11:07:34;10.20;99.90
22364;DHT22;11349;53.412;-1.328;2023-10-31T11:10:01;10.20;99.90
22364;DHT22;11349;53.412;-1.328;2023-10-31T11:12:29;10.30;99.90
22364;DHT22;11349;53.412;-1.328;2023-10-31T11:14:58;10.30;99.90
22364;DHT22;11349;53.412;-1.328;2023-10-31T11:17:28;10.30;99.90
22364;DHT22;11349;53.412;-1.328;2023-10-31T11:19:56;10.20;99.90
22364;DHT22;11349;53.412;-1.328;2023-10-31T11:22:22;10.30;99.90
22364;DHT22;11349;53.412;-1.328;2023-10-31T11:24:51;10.40;99.90
22364;DHT22;11349;53.412;-1.328;2023-10-31T11:27:17;10.30;99.90
22364;DHT22;11349;53.412;-1.328;2023-10-31T11:29:44;10.20;99.90
22364;DHT22;11349;53.412;-1.328;2023-10-31T11:32:11;10.30;99.90
22364;DHT22;11349;53.412;-1.328;2023-10-31T11:34:41;10.30;99.90
22364;DHT22;11349;53.412;-1.328;2023-10-31T11:37:26;10.20;99.90
22364;DHT22;11349;53.412;-1.328;2023-10-31T11:40:18;10.30;99.90
22364;DHT22;11349;53.412;-1.328;2023-10-31T11:43:12;10.30;99.90
22364;DHT22;11349;53.412;-1.328;2023-10-31T11:45:44;10.20;99.90
22364;DHT22;11349;53.412;-1.328;2023-10-31T11:48:13;10.20;99.90
22364;DHT22;11349;53.412;-1.328;2023-10-31T11:50:39;10.20;99.90
22364;DHT22;11349;53.412;-1.328;2023-10-31T11:53:15;10.20;99.90
22364;DHT22;11349;53.412;-1.328;2023-10-31T11:55:44;10.20;99.90
22364;DHT22;11349;53.412;-1.328;2023-10-31T12:00:46;10.30;99.90
22364;DHT22;11349;53.412;-1.328;2023-10-31T12:03:16;10.40;99.90
22364;DHT22;11349;53.412;-1.328;2023-10-31T12:05:58;10.40;99.90
22364;DHT22;11349;53.412;-1.328;2023-10-31T12:08:28;10.40;99.90
22364;DHT22;11349;53.412;-1.328;2023-10-31T12:13:31;10.40;99.90
22364;DHT22;11349;53.412;-1.328;2023-10-31T12:15:57;10.40;99.90
22364;DHT22;11349;53.412;-1.328;2023-10-31T12:18:23;10.50;99.90
22364;DHT22;11349;53.412;-1.328;2023-10-31T12:20:50;10.50;99.90
22364;DHT22;11349;53.412;-1.328;2023-10-31T12:23:17;10.50;99.90
22364;DHT22;11349;53.412;-1.328;2023-10-31T12:25:52;10.60;99.90
22364;DHT22;11349;53.412;-1.328;2023-10-31T12:28:20;10.60;99.90
22364;DHT22;11349;53.412;-1.328;2023-10-31T12:30:48;10.60;99.90
22364;DHT22;11349;53.412;-1.328;2023-10-31T12:33:14;10.70;99.90
22364;DHT22;11349;53.412;-1.328;2023-10-31T12:35:41;10.80;99.90
22364;DHT22;11349;53.412;-1.328;2023-10-31T12:38:10;10.70;99.90
22364;DHT22;11349;53.412;-1.328;2023-10-31T12:40:37;10.60;99.90
22364;DHT22;11349;53.412;-1.328;2023-10-31T12:43:03;10.70;99.90
22364;DHT22;11349;53.412;-1.328;2023-10-31T12:45:29;10.60;99.90
22364;DHT22;11349;53.412;-1.328;2023-10-31T12:48:02;10.70;99.90
22364;DHT22;11349;53.412;-1.328;2023-10-31T12:50:29;10.70;99.90
22364;DHT22;11349;53.412;-1.328;2023-10-31T12:52:56;10.80;99.90
22364;DHT22;11349;53.412;-1.328;2023-10-31T12:55:24;10.70;99.90
22364;DHT22;11349;53.412;-1.328;2023-10-31T12:57:51;10.70;99.90
22364;DHT22;11349;53.412;-1.328;2023-10-31T13:00:18;10.70;99.90
22364;DHT22;11349;53.412;-1.328;2023-10-31T13:02:51;10.70;99.90
22364;DHT22;11349;53.412;-1.328;2023-10-31T13:05:17;10.80;99.90
22364;DHT22;11349;53.412;-1.328;2023-10-31T13:07:49;10.80;99.90
22364;DHT22;11349;53.412;-1.328;2023-10-31T13:10:17;10.80;99.90
22364;DHT22;11349;53.412;-1.328;2023-10-31T13:12:46;11.00;99.90
22364;DHT22;11349;53.412;-1.328;2023-10-31T13:15:16;11.10;99.90
22364;DHT22;11349;53.412;-1.328;2023-10-31T13:17:44;11.00;99.90
22364;DHT22;11349;53.412;-1.328;2023-10-31T13:20:11;10.90;99.90
22364;DHT22;11349;53.412;-1.328;2023-10-31T13:22:38;11.00;99.90
22364;DHT22;11349;53.412;-1.328;2023-10-31T13:25:05;11.10;99.90
22364;DHT22;11349;53.412;-1.328;2023-10-31T13:27:36;11.10;99.90
22364;DHT22;11349;53.412;-1.328;2023-10-31T13:30:02;11.20;99.90
22364;DHT22;11349;53.412;-1.328;2023-10-31T13:32:28;11.40;99.90
22364;DHT22;11349;53.412;-1.328;2023-10-31T13:34:54;11.40;99.90
22364;DHT22;11349;53.412;-1.328;2023-10-31T13:37:20;11.40;99.90
22364;DHT22;11349;53.412;-1.328;2023-10-31T13:39:46;11.30;99.90
22364;DHT22;11349;53.412;-1.328;2023-10-31T13:42:12;11.50;99.90
22364;DHT22;11349;53.412;-1.328;2023-10-31T13:44:38;11.60;99.90
22364;DHT22;11349;53.412;-1.328;2023-10-31T13:47:03;11.70;99.90
22364;DHT22;11349;53.412;-1.328;2023-10-31T13:49:29;11.80;99.90
22364;DHT22;11349;53.412;-1.328;2023-10-31T13:51:55;11.60;99.90
22364;DHT22;11349;53.412;-1.328;2023-10-31T13:54:21;11.60;99.90
22364;DHT22;11349;53.412;-1.328;2023-10-31T13:56:47;11.90;99.90
22364;DHT22;11349;53.412;-1.328;2023-10-31T13:59:13;12.00;99.90
22364;DHT22;11349;53.412;-1.328;2023-10-31T14:01:40;12.00;99.90
22364;DHT22;11349;53.412;-1.328;2023-10-31T14:04:10;12.10;99.90
22364;DHT22;11349;53.412;-1.328;2023-10-31T14:06:37;12.10;99.90
22364;DHT22;11349;53.412;-1.328;2023-10-31T14:09:03;12.10;99.90
22364;DHT22;11349;53.412;-1.328;2023-10-31T14:11:30;11.80;99.90
22364;DHT22;11349;53.412;-1.328;2023-10-31T14:13:57;11.90;99.90
22364;DHT22;11349;53.412;-1.328;2023-10-31T14:16:28;11.90;99.90
22364;DHT22;11349;53.412;-1.328;2023-10-31T14:18:55;12.00;99.90
22364;DHT22;11349;53.412;-1.328;2023-10-31T14:21:21;12.10;99.90
22364;DHT22;11349;53.412;-1.328;2023-10-31T14:23:47;12.00;99.90
22364;DHT22;11349;53.412;-1.328;2023-10-31T14:26:20;11.70;99.90
22364;DHT22;11349;53.412;-1.328;2023-10-31T14:28:46;11.70;99.90
22364;DHT22;11349;53.412;-1.328;2023-10-31T14:31:15;11.60;99.90
22364;DHT22;11349;53.412;-1.328;2023-10-31T14:33:41;11.70;99.90
22364;DHT22;11349;53.412;-1.328;2023-10-31T14:36:08;11.70;99.90
22364;DHT22;11349;53.412;-1.328;2023-10-31T14:38:36;11.70;99.90
22364;DHT22;11349;53.412;-1.328;2023-10-31T14:41:01;11.60;99.90
22364;DHT22;11349;53.412;-1.328;2023-10-31T14:43:27;11.60;99.90
22364;DHT22;11349;53.412;-1.328;2023-10-31T14:45:53;11.60;99.90
22364;DHT22;11349;53.412;-1.328;2023-10-31T14:48:20;11.50;99.90
22364;DHT22;11349;53.412;-1.328;2023-10-31T14:50:46;11.40;99.90
22364;DHT22;11349;53.412;-1.328;2023-10-31T14:53:12;11.40;99.90
22364;DHT22;11349;53.412;-1.328;2023-10-31T14:55:38;11.50;99.90
22364;DHT22;11349;53.412;-1.328;2023-10-31T14:58:04;11.60;99.90
22364;DHT22;11349;53.412;-1.328;2023-10-31T15:00:30;11.50;99.90
22364;DHT22;11349;53.412;-1.328;2023-10-31T15:02:56;11.40;99.90
22364;DHT22;11349;53.412;-1.328;2023-10-31T15:05:22;11.40;99.90
22364;DHT22;11349;53.412;-1.328;2023-10-31T15:07:48;11.40;99.90
22364;DHT22;11349;53.412;-1.328;2023-10-31T15:10:14;11.30;99.90
22364;DHT22;11349;53.412;-1.328;2023-10-31T15:12:40;11.30;99.90
22364;DHT22;11349;53.412;-1.328;2023-10-31T15:15:07;11.30;99.90
22364;DHT22;11349;53.412;-1.328;2023-10-31T15:17:33;11.50;99.90
22364;DHT22;11349;53.412;-1.328;2023-10-31T15:20:00;11.60;99.90
22364;DHT22;11349;53.412;-1.328;2023-10-31T15:22:26;11.50;99.90
22364;DHT22;11349;53.412;-1.328;2023-10-31T15:24:52;11.60;99.90
22364;DHT22;11349;53.412;-1.328;2023-10-31T15:27:17;11.60;99.90
22364;DHT22;11349;53.412;-1.328;2023-10-31T15:29:43;11.50;99.90